createdAt,value
2022-09-28T00:01:19.993Z,1.85
2022-09-28T00:02:43.600Z,1.52
2022-09-28T00:04:07.039Z,1.52
2022-09-28T00:05:32.597Z,1.98
2022-09-28T00:06:54.985Z,1.42
2022-09-28T00:08:18.428Z,1.60
2022-09-28T00:09:43.258Z,1.70
2022-09-28T00:11:11.080Z,1.60
2022-09-28T00:12:34.579Z,2.05
2022-09-28T00:14:02.414Z,1.70
2022-09-28T00:15:24.844Z,1.52
2022-09-28T00:16:48.828Z,1.40
2022-09-28T00:18:11.293Z,2.08
2022-09-28T00:19:34.888Z,1.48
2022-09-28T00:21:05.562Z,1.88
2022-09-28T00:22:30.027Z,1.50
2022-09-28T00:24:11.869Z,1.67
2022-09-28T00:25:37.689Z,1.30
2022-09-28T00:27:01.596Z,1.60
2022-09-28T00:28:24.919Z,1.60
2022-09-28T00:29:48.292Z,1.60
2022-09-28T00:31:11.183Z,1.38
2022-09-28T00:32:34.609Z,1.50
2022-09-28T00:33:57.558Z,1.48
2022-09-28T00:35:20.926Z,1.58
2022-09-28T00:36:45.498Z,1.63
2022-09-28T00:38:09.485Z,1.40
2022-09-28T00:39:32.975Z,1.30
2022-09-28T00:40:56.863Z,1.98
2022-09-28T00:42:21.723Z,1.80
2022-09-28T00:43:44.184Z,1.85
2022-09-28T00:45:09.847Z,1.45
2022-09-28T00:46:33.270Z,1.33
2022-09-28T00:47:58.280Z,1.70
2022-09-28T00:49:24.934Z,1.45
2022-09-28T00:50:48.450Z,1.70
2022-09-28T00:52:13.323Z,1.42
2022-09-28T00:53:38.106Z,1.30
2022-09-28T00:55:03.229Z,1.65
2022-09-28T00:56:29.357Z,1.42
2022-09-28T00:57:55.887Z,1.58
2022-09-28T00:59:19.295Z,1.60
2022-09-28T01:00:42.974Z,1.73
2022-09-28T01:02:05.519Z,1.63
2022-09-28T01:03:29.744Z,1.80
2022-09-28T01:04:52.815Z,1.50
2022-09-28T01:06:19.439Z,1.63
2022-09-28T01:07:43.170Z,1.63
2022-09-28T01:09:07.917Z,1.45
2022-09-28T01:10:31.910Z,1.38
2022-09-28T01:11:55.971Z,1.70
2022-09-28T01:13:19.894Z,1.42
2022-09-28T01:14:42.291Z,1.70
2022-09-28T01:16:12.754Z,1.65
2022-09-28T01:17:45.419Z,1.50
2022-09-28T01:19:19.019Z,1.40
2022-09-28T01:21:07.118Z,1.45
2022-09-28T01:22:39.708Z,1.60
2022-09-28T01:24:21.378Z,1.48
2022-09-28T01:25:51.013Z,1.77
2022-09-28T01:27:20.989Z,2.00
2022-09-28T01:28:44.528Z,1.63
2022-09-28T01:30:09.480Z,1.65
2022-09-28T01:31:33.151Z,1.40
2022-09-28T01:32:59.725Z,1.95
2022-09-28T01:34:28.002Z,1.55
2022-09-28T01:35:55.366Z,1.60
2022-09-28T01:37:22.317Z,1.63
2022-09-28T01:38:48.756Z,1.30
2022-09-28T01:40:14.047Z,1.55
2022-09-28T01:41:38.076Z,1.38
2022-09-28T01:43:05.382Z,1.83
2022-09-28T01:44:29.049Z,1.45
2022-09-28T01:45:55.512Z,1.23
2022-09-28T01:47:22.018Z,2.00
2022-09-28T01:48:51.326Z,1.70
2022-09-28T01:50:17.322Z,1.98
2022-09-28T01:51:42.335Z,1.65
2022-09-28T01:53:10.019Z,1.52
2022-09-28T01:54:37.694Z,2.00
2022-09-28T01:56:03.348Z,1.70
2022-09-28T01:57:28.914Z,1.70
2022-09-28T01:58:57.815Z,1.52
2022-09-28T02:00:21.031Z,1.80
2022-09-28T02:01:47.931Z,1.48
2022-09-28T02:03:16.305Z,1.70
2022-09-28T02:04:42.403Z,1.80
2022-09-28T02:06:08.214Z,1.75
2022-09-28T02:07:35.964Z,2.15
2022-09-28T02:09:04.997Z,1.90
2022-09-28T02:10:31.712Z,1.98
2022-09-28T02:11:58.940Z,2.15
2022-09-28T02:13:25.076Z,2.35
2022-09-28T02:14:51.263Z,2.30
2022-09-28T02:16:18.291Z,2.45
2022-09-28T02:17:41.985Z,2.28
2022-09-28T02:19:05.604Z,2.15
2022-09-28T02:20:30.456Z,1.98
2022-09-28T02:21:58.909Z,2.40
2022-09-28T02:23:22.486Z,2.50
2022-09-28T02:24:50.209Z,2.58
2022-09-28T02:26:15.022Z,2.33
2022-09-28T02:27:42.466Z,2.40
2022-09-28T02:29:06.006Z,2.40
2022-09-28T02:30:30.771Z,2.47
2022-09-28T02:31:54.385Z,2.55
2022-09-28T02:33:21.633Z,2.47
2022-09-28T02:34:44.026Z,2.83
2022-09-28T02:36:08.000Z,2.58
2022-09-28T02:37:31.420Z,2.95
2022-09-28T02:38:55.247Z,2.88
2022-09-28T02:40:20.405Z,2.70
2022-09-28T02:41:56.146Z,3.03
2022-09-28T02:43:23.500Z,2.53
2022-09-28T02:44:58.662Z,2.80
2022-09-28T02:46:31.016Z,2.67
2022-09-28T02:48:04.222Z,2.88
2022-09-28T02:49:32.245Z,2.88
2022-09-28T02:51:01.048Z,3.00
2022-09-28T02:52:46.611Z,2.47
2022-09-28T02:54:35.788Z,2.97
2022-09-28T02:56:12.066Z,2.83
2022-09-28T02:57:45.832Z,2.80
2022-09-28T02:59:14.128Z,3.35
2022-09-28T03:00:41.911Z,2.95
2022-09-28T03:02:15.235Z,3.25
2022-09-28T03:03:46.309Z,2.72
2022-09-28T03:05:14.457Z,2.92
2022-09-28T03:06:42.377Z,3.38
2022-09-28T03:08:11.677Z,2.47
2022-09-28T03:09:38.881Z,2.50
2022-09-28T03:11:04.415Z,2.67
2022-09-28T03:12:29.968Z,2.90
2022-09-28T03:13:53.644Z,3.58
2022-09-28T03:15:21.390Z,2.75
2022-09-28T03:16:45.682Z,3.03
2022-09-28T03:18:10.383Z,3.20
2022-09-28T03:19:34.135Z,2.40
2022-09-28T03:20:57.714Z,2.58
2022-09-28T03:22:20.059Z,3.30
2022-09-28T03:23:44.037Z,2.92
2022-09-28T03:25:07.801Z,2.72
2022-09-28T03:26:31.127Z,3.25
2022-09-28T03:27:53.482Z,2.88
2022-09-28T03:29:17.124Z,3.47
2022-09-28T03:30:39.527Z,2.92
2022-09-28T03:32:03.160Z,3.22
2022-09-28T03:33:26.879Z,3.00
2022-09-28T03:34:50.248Z,3.22
2022-09-28T03:36:14.982Z,3.50
2022-09-28T03:37:37.516Z,3.20
2022-09-28T03:39:00.977Z,3.30
2022-09-28T03:40:23.558Z,3.38
2022-09-28T03:41:47.013Z,3.20
2022-09-28T03:43:09.455Z,2.92
2022-09-28T03:44:32.849Z,3.30
2022-09-28T03:45:56.944Z,3.78
2022-09-28T03:47:19.562Z,3.45
2022-09-28T03:48:44.257Z,3.05
2022-09-28T03:50:08.252Z,3.47
2022-09-28T03:51:31.611Z,3.72
2022-09-28T03:52:56.687Z,3.42
2022-09-28T03:54:20.083Z,3.72
2022-09-28T03:55:43.435Z,3.55
2022-09-28T03:57:05.837Z,3.50
2022-09-28T03:58:32.729Z,3.53
2022-09-28T03:59:56.159Z,3.25
2022-09-28T04:01:20.028Z,3.83
2022-09-28T04:02:42.490Z,3.63
2022-09-28T04:04:07.212Z,3.25
2022-09-28T04:05:29.611Z,3.53
2022-09-28T04:06:52.949Z,4.18
2022-09-28T04:08:15.376Z,3.45
2022-09-28T04:09:38.705Z,3.75
2022-09-28T04:11:01.781Z,2.97
2022-09-28T04:12:25.172Z,4.00
2022-09-28T04:13:49.114Z,4.05
2022-09-28T04:15:12.717Z,4.30
2022-09-28T04:16:36.132Z,4.32
2022-09-28T04:17:59.481Z,5.25
2022-09-28T04:19:24.263Z,3.80
2022-09-28T04:20:48.139Z,4.20
2022-09-28T04:22:11.560Z,4.05
2022-09-28T04:23:34.669Z,3.70
2022-09-28T04:24:58.065Z,3.90
2022-09-28T04:26:23.152Z,4.03
2022-09-28T04:28:03.838Z,3.42
2022-09-28T04:29:26.256Z,4.18
2022-09-28T04:30:49.662Z,3.45
2022-09-28T04:32:13.088Z,3.65
2022-09-28T04:33:35.453Z,4.30
2022-09-28T04:35:00.232Z,4.40
2022-09-28T04:36:24.988Z,3.90
2022-09-28T04:37:48.333Z,3.67
2022-09-28T04:39:12.155Z,3.78
2022-09-28T04:40:34.576Z,3.45
2022-09-28T04:41:57.976Z,4.22
2022-09-28T04:43:21.439Z,3.83
2022-09-28T04:44:44.829Z,3.97
2022-09-28T04:46:07.433Z,3.80
2022-09-28T04:47:31.650Z,3.55
2022-09-28T04:48:54.008Z,3.83
2022-09-28T04:50:18.710Z,3.95
2022-09-28T04:51:42.050Z,3.70
2022-09-28T04:53:04.806Z,3.63
2022-09-28T04:54:28.168Z,3.60
2022-09-28T04:55:59.431Z,4.20
2022-09-28T04:57:22.891Z,4.13
2022-09-28T04:58:50.331Z,3.42
2022-09-28T05:00:17.377Z,3.53
2022-09-28T05:01:40.786Z,3.60
2022-09-28T05:03:04.280Z,3.10
2022-09-28T05:04:28.128Z,3.97
2022-09-28T05:05:53.145Z,3.95
2022-09-28T05:07:16.716Z,3.60
2022-09-28T05:08:40.373Z,3.80
2022-09-28T05:10:02.831Z,3.60
2022-09-28T05:11:26.256Z,3.90
2022-09-28T05:12:48.669Z,4.65
2022-09-28T05:14:12.788Z,4.10
2022-09-28T05:15:36.400Z,3.92
2022-09-28T05:16:59.895Z,3.55
2022-09-28T05:18:23.575Z,3.40
2022-09-28T05:19:46.904Z,3.55
2022-09-28T05:21:15.236Z,4.00
2022-09-28T05:22:38.619Z,4.50
2022-09-28T05:24:07.208Z,3.58
2022-09-28T05:25:30.639Z,3.70
2022-09-28T05:26:53.998Z,3.72
2022-09-28T05:28:22.919Z,4.20
2022-09-28T05:29:46.285Z,3.67
2022-09-28T05:31:10.523Z,4.18
2022-09-28T05:32:33.938Z,2.97
2022-09-28T05:33:57.718Z,3.63
2022-09-28T05:35:20.657Z,4.28
2022-09-28T05:36:45.729Z,3.97
2022-09-28T05:38:09.141Z,3.33
2022-09-28T05:39:32.544Z,3.95
2022-09-28T05:40:55.983Z,4.00
2022-09-28T05:42:18.370Z,3.90
2022-09-28T05:43:41.685Z,4.05
2022-09-28T05:45:06.325Z,4.10
2022-09-28T05:46:29.877Z,4.10
2022-09-28T05:47:53.944Z,3.45
2022-09-28T05:49:17.316Z,3.70
2022-09-28T05:50:40.788Z,3.53
2022-09-28T05:52:05.685Z,3.58
2022-09-28T05:53:29.004Z,3.55
2022-09-28T05:54:52.341Z,3.10
2022-09-28T05:56:15.813Z,3.95
2022-09-28T05:57:38.291Z,3.75
2022-09-28T05:59:01.755Z,3.58
2022-09-28T06:00:24.252Z,3.63
2022-09-28T06:01:47.826Z,3.65
2022-09-28T06:03:13.856Z,3.90
2022-09-28T06:04:37.264Z,3.25
2022-09-28T06:06:02.727Z,3.67
2022-09-28T06:07:26.548Z,3.13
2022-09-28T06:08:50.146Z,3.38
2022-09-28T06:10:13.510Z,3.00
2022-09-28T06:11:36.839Z,3.10
2022-09-28T06:13:00.513Z,3.30
2022-09-28T06:14:23.895Z,2.50
2022-09-28T06:15:47.387Z,2.75
2022-09-28T06:17:10.762Z,2.92
2022-09-28T06:18:34.264Z,3.20
2022-09-28T06:19:56.602Z,3.03
2022-09-28T06:21:19.961Z,3.00
2022-09-28T06:22:44.682Z,3.03
2022-09-28T06:24:08.355Z,3.45
2022-09-28T06:25:31.743Z,3.38
2022-09-28T06:26:55.124Z,3.10
2022-09-28T06:28:18.531Z,3.03
2022-09-28T06:29:41.876Z,3.35
2022-09-28T06:31:05.874Z,3.13
2022-09-28T06:32:29.706Z,3.28
2022-09-28T06:33:53.290Z,3.30
2022-09-28T06:35:16.059Z,3.00
2022-09-28T06:36:39.425Z,3.33
2022-09-28T06:38:04.446Z,3.20
2022-09-28T06:39:28.175Z,3.28
2022-09-28T06:40:51.609Z,3.50
2022-09-28T06:42:14.154Z,3.63
2022-09-28T06:43:39.533Z,3.50
2022-09-28T06:45:02.791Z,3.25
2022-09-28T06:46:27.256Z,3.50
2022-09-28T06:47:55.800Z,3.22
2022-09-28T06:49:19.716Z,3.20
2022-09-28T06:50:43.172Z,3.17
2022-09-28T06:52:06.733Z,3.22
2022-09-28T06:53:32.387Z,3.50
2022-09-28T06:54:55.773Z,3.80
2022-09-28T06:56:19.480Z,4.10
2022-09-28T06:57:42.952Z,3.15
2022-09-28T06:59:06.475Z,4.30
2022-09-28T07:00:31.085Z,3.53
2022-09-28T07:02:17.015Z,3.25
2022-09-28T07:03:46.067Z,3.30
2022-09-28T07:05:10.495Z,3.75
2022-09-28T07:06:33.865Z,3.58
2022-09-28T07:07:56.625Z,3.17
2022-09-28T07:09:32.334Z,3.28
2022-09-28T07:10:57.166Z,3.53
2022-09-28T07:12:20.517Z,3.63
2022-09-28T07:13:51.035Z,3.47
2022-09-28T07:15:14.782Z,3.28
2022-09-28T07:17:04.923Z,3.38
2022-09-28T07:18:22.905Z,3.63
2022-09-28T07:19:46.265Z,3.38
2022-09-28T07:21:16.932Z,3.00
2022-09-28T07:22:47.943Z,3.45
2022-09-28T07:24:12.403Z,3.53
2022-09-28T07:25:41.004Z,3.50
2022-09-28T07:27:05.579Z,3.80
2022-09-28T07:28:30.540Z,3.30
2022-09-28T07:29:54.172Z,3.33
2022-09-28T07:31:18.948Z,3.60
2022-09-28T07:32:42.483Z,3.33
2022-09-28T07:34:05.875Z,3.80
2022-09-28T07:35:29.464Z,3.90
2022-09-28T07:36:58.810Z,4.15
2022-09-28T07:38:22.348Z,4.18
2022-09-28T07:40:03.311Z,3.58
2022-09-28T07:41:33.140Z,3.30
2022-09-28T07:42:55.667Z,3.83
2022-09-28T07:44:19.135Z,3.90
2022-09-28T07:45:45.080Z,3.95
2022-09-28T07:47:09.079Z,3.28
2022-09-28T07:48:36.640Z,3.80
2022-09-28T07:50:00.276Z,3.53
2022-09-28T07:51:23.657Z,3.53
2022-09-28T07:52:47.098Z,4.03
2022-09-28T07:54:10.531Z,3.50
2022-09-28T07:55:33.988Z,3.63
2022-09-28T07:56:58.719Z,4.18
2022-09-28T07:58:22.238Z,4.30
2022-09-28T07:59:45.605Z,3.55
2022-09-28T08:01:11.908Z,3.80
2022-09-28T08:02:35.472Z,3.83
2022-09-28T08:03:58.962Z,3.97
2022-09-28T08:05:22.321Z,3.75
2022-09-28T08:06:45.851Z,4.00
2022-09-28T08:08:09.220Z,3.58
2022-09-28T08:09:32.552Z,3.75
2022-09-28T08:12:25.917Z,3.58
2022-09-28T08:13:49.559Z,3.55
2022-09-28T08:15:12.933Z,4.43
2022-09-28T08:16:35.428Z,4.10
2022-09-28T08:18:02.035Z,4.15
2022-09-28T08:19:26.342Z,4.22
2022-09-28T08:21:09.833Z,5.00
2022-09-28T08:22:32.863Z,4.18
2022-09-28T08:23:56.352Z,3.88
2022-09-28T08:25:19.788Z,3.95
2022-09-28T08:26:43.419Z,3.60
2022-09-28T08:28:08.380Z,4.28
2022-09-28T08:29:32.287Z,4.05
2022-09-28T08:30:55.691Z,4.03
2022-09-28T08:32:19.517Z,3.53
2022-09-28T08:33:43.059Z,4.32
2022-09-28T08:35:06.969Z,3.67
2022-09-28T08:36:30.307Z,3.83
2022-09-28T08:37:55.589Z,3.42
2022-09-28T08:39:19.159Z,4.68
2022-09-28T08:40:49.103Z,4.22
2022-09-28T08:42:29.110Z,4.00
2022-09-28T08:44:04.410Z,4.40
2022-09-28T08:45:29.500Z,3.88
2022-09-28T08:46:55.173Z,3.38
2022-09-28T08:48:40.045Z,3.60
2022-09-28T08:50:04.512Z,3.65
2022-09-28T08:51:32.010Z,3.33
2022-09-28T08:52:58.084Z,3.53
2022-09-28T08:54:34.286Z,4.47
2022-09-28T08:55:57.787Z,3.47
2022-09-28T08:57:24.070Z,3.65
2022-09-28T08:58:50.961Z,3.58
2022-09-28T09:00:21.843Z,3.83
2022-09-28T09:01:50.007Z,2.90
2022-09-28T09:03:16.011Z,3.20
2022-09-28T09:04:40.206Z,2.97
2022-09-28T09:06:10.536Z,2.63
2022-09-28T09:08:09.477Z,2.75
2022-09-28T09:09:41.184Z,2.88
2022-09-28T09:11:12.226Z,2.63
2022-09-28T09:12:43.194Z,1.90
2022-09-28T09:14:30.000Z,2.47
2022-09-28T09:15:58.392Z,2.30
2022-09-28T09:17:29.784Z,1.95
2022-09-28T09:18:57.041Z,2.00
2022-09-28T09:20:26.454Z,1.80
2022-09-28T09:21:56.276Z,2.20
2022-09-28T09:23:21.035Z,1.73
2022-09-28T09:24:49.517Z,1.60
2022-09-28T09:26:22.215Z,1.92
2022-09-28T09:28:21.903Z,1.83
2022-09-28T09:30:02.669Z,1.83
2022-09-28T09:31:38.520Z,1.80
2022-09-28T09:33:39.627Z,1.50
2022-09-28T09:35:26.265Z,1.60
2022-09-28T09:37:04.892Z,1.13
2022-09-28T09:38:40.716Z,1.27
2022-09-28T09:40:18.663Z,1.30
2022-09-28T09:41:52.223Z,1.40
2022-09-28T09:43:48.471Z,1.65
2022-09-28T09:45:25.531Z,1.27
2022-09-28T09:46:54.044Z,1.27
2022-09-28T09:48:21.062Z,1.48
2022-09-28T09:49:46.644Z,1.60
2022-09-28T09:51:17.719Z,1.30
2022-09-28T09:52:48.456Z,1.67
2022-09-28T09:54:17.796Z,1.30
2022-09-28T09:55:44.976Z,1.63
2022-09-28T09:57:15.476Z,1.25
2022-09-28T09:58:40.431Z,1.10
2022-09-28T10:00:04.890Z,1.35
2022-09-28T10:01:33.817Z,1.20
2022-09-28T10:03:00.197Z,1.25
2022-09-28T10:04:26.880Z,1.00
2022-09-28T10:05:59.405Z,1.10
2022-09-28T10:07:26.328Z,0.80
2022-09-28T10:08:51.501Z,0.98
2022-09-28T10:10:19.273Z,0.90
2022-09-28T10:11:45.556Z,1.33
2022-09-28T10:13:10.988Z,1.50
2022-09-28T10:14:33.353Z,1.02
2022-09-28T10:15:57.110Z,1.45
2022-09-28T10:17:26.753Z,1.30
2022-09-28T10:18:51.569Z,0.90
2022-09-28T10:20:16.215Z,1.33
2022-09-28T10:21:41.100Z,1.35
2022-09-28T10:23:06.733Z,1.10
2022-09-28T10:24:32.685Z,0.93
2022-09-28T10:25:59.412Z,0.70
2022-09-28T10:27:26.800Z,1.20
2022-09-28T10:28:53.242Z,0.95
2022-09-28T10:30:19.348Z,0.90
2022-09-28T10:31:43.917Z,0.80
2022-09-28T10:33:07.277Z,0.75
2022-09-28T10:34:32.422Z,1.23
2022-09-28T10:35:56.208Z,0.95
2022-09-28T10:37:19.950Z,1.17
2022-09-28T10:38:49.967Z,0.85
2022-09-28T10:40:30.291Z,1.05
2022-09-28T10:41:54.110Z,1.27
2022-09-28T10:43:22.609Z,1.35
2022-09-28T10:44:53.676Z,1.00
2022-09-28T10:46:23.443Z,1.35
2022-09-28T10:47:46.937Z,1.45
2022-09-28T10:49:16.983Z,1.52
2022-09-28T10:50:42.623Z,1.52
2022-09-28T10:52:08.605Z,1.42
2022-09-28T10:53:32.069Z,1.33
2022-09-28T10:54:55.863Z,1.45
2022-09-28T10:56:23.411Z,1.20
2022-09-28T10:57:46.735Z,1.20
2022-09-28T10:59:36.467Z,1.20
2022-09-28T11:01:05.230Z,1.35
2022-09-28T11:02:35.399Z,1.33
2022-09-28T11:04:00.887Z,1.42
2022-09-28T11:05:27.845Z,1.17
2022-09-28T11:06:53.632Z,2.00
2022-09-28T11:08:24.153Z,1.30
2022-09-28T11:09:49.864Z,1.42
2022-09-28T11:11:15.077Z,1.77
2022-09-28T11:12:44.554Z,1.30
2022-09-28T11:14:24.383Z,1.52
2022-09-28T11:15:47.784Z,1.33
2022-09-28T11:17:18.757Z,1.48
2022-09-28T11:18:42.095Z,1.38
2022-09-28T11:20:34.535Z,1.60
2022-09-28T11:21:59.497Z,1.33
2022-09-28T11:23:25.223Z,1.60
2022-09-28T11:24:48.692Z,2.50
2022-09-28T11:26:18.296Z,2.08
2022-09-28T11:27:42.345Z,1.75
2022-09-28T11:29:07.433Z,1.60
2022-09-28T11:30:33.796Z,1.90
2022-09-28T11:32:01.727Z,1.80
2022-09-28T11:33:30.576Z,2.60
2022-09-28T11:34:59.743Z,2.03
2022-09-28T11:36:32.476Z,1.70
2022-09-28T11:38:10.726Z,1.55
2022-09-28T11:39:40.545Z,2.22
2022-09-28T11:41:17.624Z,1.58
2022-09-28T11:42:48.767Z,1.75
2022-09-28T11:44:22.641Z,2.40
2022-09-28T11:45:53.639Z,1.83
2022-09-28T11:47:35.895Z,1.98
2022-09-28T11:49:02.823Z,1.35
2022-09-28T11:50:32.327Z,1.35
2022-09-28T11:51:58.431Z,1.63
2022-09-28T11:53:26.836Z,1.35
2022-09-28T11:54:53.643Z,3.53
2022-09-28T11:56:20.045Z,1.50
2022-09-28T11:57:46.405Z,1.25
2022-09-28T11:59:15.752Z,1.17
2022-09-28T12:00:43.505Z,1.27
2022-09-28T12:02:15.069Z,1.55
2022-09-28T12:03:43.264Z,5.35
2022-09-28T12:05:19.842Z,2.70
2022-09-28T12:06:50.217Z,1.40
2022-09-28T12:08:18.062Z,1.70
2022-09-28T12:09:46.956Z,2.05
2022-09-28T12:11:14.201Z,1.60
2022-09-28T12:12:41.362Z,1.60
2022-09-28T12:14:07.446Z,1.08
2022-09-28T12:16:12.984Z,1.20
2022-09-28T12:17:32.141Z,1.05
2022-09-28T12:20:27.256Z,0.90
2022-09-28T12:21:52.616Z,1.05
2022-09-28T12:23:19.199Z,1.13
2022-09-28T12:24:47.476Z,1.27
2022-09-28T12:26:22.775Z,1.10
2022-09-28T12:27:50.828Z,1.25
2022-09-28T12:29:16.865Z,0.80
2022-09-28T12:30:41.696Z,0.80
2022-09-28T12:32:12.014Z,1.00
2022-09-28T12:33:35.344Z,0.70
2022-09-28T12:34:59.284Z,0.90
2022-09-28T12:36:34.356Z,0.70
2022-09-28T12:38:19.061Z,1.10
2022-09-28T12:40:01.661Z,1.00
2022-09-28T12:41:35.296Z,0.60
2022-09-28T12:43:17.513Z,0.60
2022-09-28T12:44:58.584Z,1.00
2022-09-28T12:46:45.972Z,0.57
2022-09-28T12:48:26.273Z,0.80
2022-09-28T12:51:48.771Z,0.70
2022-09-28T12:53:33.599Z,1.00
2022-09-28T12:55:20.901Z,1.30
2022-09-28T12:56:52.329Z,1.00
2022-09-28T12:58:36.579Z,0.80
2022-09-28T13:00:05.240Z,1.58
2022-09-28T13:01:40.921Z,0.82
2022-09-28T13:03:51.972Z,1.15
2022-09-28T13:05:31.469Z,0.95
2022-09-28T13:07:00.516Z,0.68
2022-09-28T13:08:27.752Z,0.90
2022-09-28T13:10:00.013Z,0.80
2022-09-28T13:11:31.832Z,0.82
2022-09-28T13:13:05.265Z,0.60
2022-09-28T13:14:46.987Z,0.60
2022-09-28T13:16:17.367Z,0.77
2022-09-28T13:18:01.658Z,0.70
2022-09-28T13:19:29.045Z,0.90
2022-09-28T13:21:06.812Z,0.82
2022-09-28T13:22:42.185Z,1.08
2022-09-28T13:24:31.050Z,0.70
2022-09-28T13:25:57.895Z,0.40
2022-09-28T13:27:30.100Z,0.50
2022-09-28T13:28:55.614Z,0.95
2022-09-28T13:30:19.761Z,0.80
2022-09-28T13:31:49.455Z,0.90
2022-09-28T13:33:19.725Z,5.90
2022-09-28T13:34:43.172Z,1.25
2022-09-28T13:36:37.395Z,1.02
2022-09-28T13:38:37.972Z,0.82
2022-09-28T13:40:06.062Z,0.60
2022-09-28T13:41:31.634Z,0.63
2022-09-28T13:43:10.611Z,0.70
2022-09-28T13:44:48.270Z,1.30
2022-09-28T13:46:15.744Z,0.80
2022-09-28T13:48:05.793Z,0.80
2022-09-28T13:49:36.517Z,1.30
2022-09-28T13:51:19.644Z,0.60
2022-09-28T13:52:48.256Z,0.52
2022-09-28T13:54:23.230Z,0.70
2022-09-28T13:55:55.788Z,0.80
2022-09-28T13:57:25.179Z,0.93
2022-09-28T13:58:54.311Z,2.05
2022-09-28T14:00:22.865Z,2.00
2022-09-28T14:01:51.781Z,1.60
2022-09-28T14:03:27.610Z,1.00
2022-09-28T14:04:58.480Z,0.68
2022-09-28T14:06:26.926Z,0.80
2022-09-28T14:08:20.754Z,0.70
2022-09-28T14:09:45.912Z,0.65
2022-09-28T14:11:40.110Z,0.65
2022-09-28T14:13:06.550Z,0.60
2022-09-28T14:14:49.908Z,0.50
2022-09-28T14:16:23.765Z,0.82
2022-09-28T14:17:52.725Z,1.15
2022-09-28T14:19:20.236Z,2.03
2022-09-28T14:20:51.275Z,2.63
2022-09-28T14:22:20.139Z,1.70
2022-09-28T14:23:58.994Z,1.30
2022-09-28T14:25:25.605Z,4.00
2022-09-28T14:27:24.284Z,1.25
2022-09-28T14:28:57.850Z,1.10
2022-09-28T14:30:26.416Z,2.33
2022-09-28T14:31:49.829Z,1.20
2022-09-28T14:33:23.384Z,0.85
2022-09-28T14:34:48.106Z,0.80
2022-09-28T14:36:46.296Z,1.15
2022-09-28T14:38:34.728Z,0.85
2022-09-28T14:40:15.984Z,0.65
2022-09-28T14:41:40.831Z,0.85
2022-09-28T14:43:26.933Z,1.45
2022-09-28T14:45:34.657Z,0.77
2022-09-28T14:47:34.008Z,0.90
2022-09-28T14:48:58.360Z,0.85
2022-09-28T14:50:25.227Z,0.90
2022-09-28T14:52:11.221Z,1.00
2022-09-28T14:53:40.509Z,0.82
2022-09-28T14:55:04.294Z,1.13
2022-09-28T14:56:32.488Z,1.50
2022-09-28T14:57:58.447Z,1.10
2022-09-28T14:59:24.741Z,0.90
2022-09-28T15:00:49.186Z,0.70
2022-09-28T15:02:26.402Z,1.02
2022-09-28T15:03:53.340Z,0.60
2022-09-28T15:05:19.519Z,1.70
2022-09-28T15:06:46.632Z,1.58
2022-09-28T15:08:12.487Z,1.13
2022-09-28T15:09:36.309Z,0.82
2022-09-28T15:11:01.903Z,0.70
2022-09-28T15:12:28.032Z,1.40
2022-09-28T15:13:53.358Z,0.90
2022-09-28T15:15:27.919Z,1.00
2022-09-28T15:16:51.911Z,1.77
2022-09-28T15:18:34.509Z,1.05
2022-09-28T15:20:23.679Z,1.15
2022-09-28T15:21:48.617Z,1.70
2022-09-28T15:23:27.609Z,1.30
2022-09-28T15:25:02.049Z,2.60
2022-09-28T15:26:27.972Z,2.22
2022-09-28T15:27:55.046Z,0.80
2022-09-28T15:29:19.441Z,4.18
2022-09-28T15:30:43.385Z,1.90
2022-09-28T15:32:06.793Z,1.10
2022-09-28T15:33:49.645Z,1.70
2022-09-28T15:35:20.468Z,0.82
2022-09-28T15:36:46.385Z,1.00
2022-09-28T15:38:13.876Z,0.85
2022-09-28T15:39:37.346Z,1.02
2022-09-28T15:41:02.765Z,2.10
2022-09-28T15:42:26.684Z,1.45
2022-09-28T15:44:09.588Z,1.98
2022-09-28T15:45:35.052Z,1.40
2022-09-28T15:47:11.170Z,1.10
2022-09-28T15:48:38.711Z,1.20
2022-09-28T15:50:04.370Z,1.33
2022-09-28T15:51:29.838Z,1.52
2022-09-28T15:52:58.232Z,1.40
2022-09-28T15:54:24.876Z,1.50
2022-09-28T15:55:51.589Z,1.45
2022-09-28T15:57:33.410Z,1.33
2022-09-28T15:59:18.733Z,1.20
2022-09-28T16:00:42.333Z,1.02
2022-09-28T16:02:13.125Z,1.60
2022-09-28T16:03:36.683Z,2.67
2022-09-28T16:05:01.320Z,2.30
2022-09-28T16:06:24.715Z,1.85
2022-09-28T16:07:56.405Z,1.27
2022-09-28T16:09:54.107Z,1.63
2022-09-28T16:11:20.674Z,1.30
2022-09-28T16:12:46.614Z,3.95
2022-09-28T16:14:19.501Z,2.30
2022-09-28T16:15:43.192Z,1.60
2022-09-28T16:17:06.702Z,1.55
2022-09-28T16:18:32.358Z,1.35
2022-09-28T16:19:54.759Z,2.20
2022-09-28T16:21:43.856Z,1.83
2022-09-28T16:23:21.211Z,2.70
2022-09-28T16:24:54.427Z,1.65
2022-09-28T16:26:28.347Z,1.50
2022-09-28T16:27:52.785Z,1.35
2022-09-28T16:29:26.142Z,1.70
2022-09-28T16:31:02.056Z,1.67
2022-09-28T16:32:41.520Z,1.17
2022-09-28T16:34:20.306Z,1.35
2022-09-28T16:35:52.098Z,1.20
2022-09-28T16:37:28.658Z,2.38
2022-09-28T16:38:54.290Z,1.17
2022-09-28T16:40:16.916Z,2.30
2022-09-28T16:41:41.430Z,2.30
2022-09-28T16:43:07.284Z,3.08
2022-09-28T16:44:32.690Z,3.45
2022-09-28T16:45:57.996Z,2.95
2022-09-28T16:47:21.430Z,2.13
2022-09-28T16:48:48.707Z,3.10
2022-09-28T16:50:15.069Z,3.20
2022-09-28T16:51:40.102Z,2.28
2022-09-28T16:53:29.358Z,2.22
2022-09-28T16:55:35.782Z,2.55
2022-09-28T16:56:55.980Z,3.08
2022-09-28T16:58:19.577Z,2.83
2022-09-28T16:59:42.979Z,2.42
2022-09-28T17:01:08.776Z,2.22
2022-09-28T17:02:46.428Z,2.95
2022-09-28T17:04:11.157Z,2.40
2022-09-28T17:05:34.504Z,3.28
2022-09-28T17:06:58.305Z,2.47
2022-09-28T17:08:23.616Z,2.47
2022-09-28T17:09:46.938Z,1.75
2022-09-28T17:11:20.222Z,2.58
2022-09-28T17:12:46.186Z,2.83
2022-09-28T17:14:09.597Z,2.50
2022-09-28T17:15:33.234Z,3.35
2022-09-28T17:17:08.168Z,3.53
2022-09-28T17:18:33.143Z,3.00
2022-09-28T17:19:56.805Z,3.47
2022-09-28T17:21:21.662Z,3.45
2022-09-28T17:22:44.090Z,3.70
2022-09-28T17:24:07.916Z,4.13
2022-09-28T17:25:30.413Z,4.47
2022-09-28T17:26:55.109Z,3.78
2022-09-28T17:28:20.647Z,3.47
2022-09-28T17:29:44.136Z,3.47
2022-09-28T17:31:11.339Z,3.10
2022-09-28T17:32:35.209Z,3.17
2022-09-28T17:33:58.862Z,4.00
2022-09-28T17:35:25.010Z,3.15
2022-09-28T17:36:50.081Z,2.75
2022-09-28T17:38:14.824Z,3.05
2022-09-28T17:39:38.275Z,4.35
2022-09-28T17:41:01.688Z,3.00
2022-09-28T17:42:26.553Z,2.50
2022-09-28T17:43:50.172Z,3.28
2022-09-28T17:45:13.623Z,3.65
2022-09-28T17:46:38.703Z,3.65
2022-09-28T17:48:02.487Z,2.88
2022-09-28T17:49:25.859Z,2.25
2022-09-28T17:50:49.374Z,2.72
2022-09-28T17:52:13.043Z,3.20
2022-09-28T17:53:36.490Z,2.92
2022-09-28T17:54:59.839Z,2.50
2022-09-28T17:56:23.318Z,2.72
2022-09-28T17:57:48.075Z,3.13
2022-09-28T17:59:14.794Z,3.42
2022-09-28T18:00:38.162Z,2.70
2022-09-28T18:02:02.573Z,2.72
2022-09-28T18:03:27.003Z,2.42
2022-09-28T18:04:52.639Z,3.92
2022-09-28T18:06:19.661Z,3.08
2022-09-28T18:07:47.397Z,3.03
2022-09-28T18:09:13.039Z,3.63
2022-09-28T18:10:36.480Z,3.70
2022-09-28T18:12:01.320Z,3.30
2022-09-28T18:13:26.226Z,2.60
2022-09-28T18:14:49.779Z,3.15
2022-09-28T18:16:13.565Z,3.70
2022-09-28T18:17:37.011Z,2.50
2022-09-28T18:19:00.386Z,2.97
2022-09-28T18:20:23.724Z,3.00
2022-09-28T18:21:48.144Z,4.50
2022-09-28T18:23:11.498Z,3.30
2022-09-28T18:24:34.842Z,2.85
2022-09-28T18:25:58.289Z,2.65
2022-09-28T18:27:21.684Z,3.25
2022-09-28T18:28:47.601Z,2.72
2022-09-28T18:30:11.657Z,2.90
2022-09-28T18:31:34.988Z,2.47
2022-09-28T18:32:58.569Z,7.38
2022-09-28T18:34:21.979Z,10.50
2022-09-28T18:35:52.978Z,5.45
2022-09-28T18:37:16.375Z,5.32
2022-09-28T18:38:41.183Z,8.65
2022-09-28T18:40:05.191Z,3.75
2022-09-28T18:41:29.249Z,3.22
2022-09-28T18:42:52.980Z,3.00
2022-09-28T18:44:17.734Z,2.30
2022-09-28T18:45:41.214Z,2.08
2022-09-28T18:47:04.655Z,4.03
2022-09-28T18:48:29.414Z,3.20
2022-09-28T18:49:52.767Z,2.30
2022-09-28T18:51:16.176Z,2.95
2022-09-28T18:52:39.785Z,3.70
2022-09-28T18:54:07.237Z,3.40
2022-09-28T18:55:31.200Z,3.35
2022-09-28T18:56:56.264Z,4.03
2022-09-28T18:58:19.861Z,2.70
2022-09-28T18:59:44.731Z,3.78
2022-09-28T19:01:28.891Z,2.53
2022-09-28T19:02:54.100Z,2.67
2022-09-28T19:04:19.910Z,2.53
2022-09-28T19:05:43.821Z,3.72
2022-09-28T19:07:07.420Z,3.17
2022-09-28T19:08:29.780Z,3.60
2022-09-28T19:09:53.290Z,3.30
2022-09-28T19:11:17.843Z,3.42
2022-09-28T19:12:41.203Z,2.63
2022-09-28T19:14:04.580Z,2.50
2022-09-28T19:15:29.317Z,3.17
2022-09-28T19:16:52.715Z,3.30
2022-09-28T19:18:16.336Z,2.63
2022-09-28T19:19:42.573Z,3.70
2022-09-28T19:21:06.763Z,3.58
2022-09-28T19:22:31.267Z,2.75
2022-09-28T19:23:55.489Z,3.83
2022-09-28T19:25:19.154Z,3.00
2022-09-28T19:26:43.246Z,3.00
2022-09-28T19:28:06.583Z,3.65
2022-09-28T19:29:30.041Z,2.90
2022-09-28T19:32:26.011Z,3.67
2022-09-28T19:33:49.932Z,4.38
2022-09-28T19:35:13.672Z,4.75
2022-09-28T19:36:37.263Z,3.20